sensor_id;sensor_type;location;lat;lon;timestamp;P1;durP1;ratioP1;P2;durP2;ratioP2
74162;SDS011;62515;52.758;5.076;2022-11-12T00:02:31;16.52;;;9.70;;
74162;SDS011;62515;52.758;5.076;2022-11-12T00:05:16;21.80;;;11.02;;
74162;SDS011;62515;52.758;5.076;2022-11-12T00:08:02;21.23;;;11.90;;
74162;SDS011;62515;52.758;5.076;2022-11-12T00:10:48;21.52;;;13.88;;
74162;SDS011;62515;52.758;5.076;2022-11-12T00:13:33;21.63;;;12.27;;
74162;SDS011;62515;52.758;5.076;2022-11-12T00:16:20;25.25;;;14.35;;
74162;SDS011;62515;52.758;5.076;2022-11-12T00:19:05;22.88;;;12.13;;
74162;SDS011;62515;52.758;5.076;2022-11-12T00:21:50;22.00;;;11.90;;
74162;SDS011;62515;52.758;5.076;2022-11-12T00:24:36;20.67;;;11.88;;
74162;SDS011;62515;52.758;5.076;2022-11-12T00:27:22;19.38;;;10.75;;
74162;SDS011;62515;52.758;5.076;2022-11-12T00:30:07;18.50;;;13.07;;
74162;SDS011;62515;52.758;5.076;2022-11-12T00:32:54;21.25;;;10.00;;
74162;SDS011;62515;52.758;5.076;2022-11-12T00:35:40;16.13;;;9.50;;
74162;SDS011;62515;52.758;5.076;2022-11-12T00:38:25;17.58;;;10.05;;
74162;SDS011;62515;52.758;5.076;2022-11-12T00:41:14;19.88;;;10.57;;
74162;SDS011;62515;52.758;5.076;2022-11-12T00:44:00;22.30;;;10.52;;
74162;SDS011;62515;52.758;5.076;2022-11-12T00:46:45;19.48;;;10.18;;
74162;SDS011;62515;52.758;5.076;2022-11-12T00:49:32;20.33;;;10.43;;
74162;SDS011;62515;52.758;5.076;2022-11-12T00:52:17;16.73;;;10.55;;
74162;SDS011;62515;52.758;5.076;2022-11-12T00:55:03;28.80;;;11.23;;
74162;SDS011;62515;52.758;5.076;2022-11-12T00:57:49;25.73;;;15.15;;
74162;SDS011;62515;52.758;5.076;2022-11-12T01:00:34;30.38;;;11.88;;
74162;SDS011;62515;52.758;5.076;2022-11-12T01:03:20;22.58;;;14.07;;
74162;SDS011;62515;52.758;5.076;2022-11-12T01:06:08;23.85;;;12.13;;
74162;SDS011;62515;52.758;5.076;2022-11-12T01:08:55;29.02;;;14.38;;
74162;SDS011;62515;52.758;5.076;2022-11-12T01:11:40;26.50;;;11.70;;
74162;SDS011;62515;52.758;5.076;2022-11-12T01:14:26;33.65;;;14.63;;
74162;SDS011;62515;52.758;5.076;2022-11-12T01:17:11;40.47;;;15.15;;
74162;SDS011;62515;52.758;5.076;2022-11-12T01:19:57;38.78;;;16.42;;
74162;SDS011;62515;52.758;5.076;2022-11-12T01:22:43;43.88;;;18.75;;
74162;SDS011;62515;52.758;5.076;2022-11-12T01:25:29;42.17;;;18.80;;
74162;SDS011;62515;52.758;5.076;2022-11-12T01:28:14;45.03;;;15.13;;
74162;SDS011;62515;52.758;5.076;2022-11-12T01:31:08;47.05;;;16.65;;
74162;SDS011;62515;52.758;5.076;2022-11-12T01:33:55;33.92;;;15.85;;
74162;SDS011;62515;52.758;5.076;2022-11-12T01:36:42;38.92;;;13.50;;
74162;SDS011;62515;52.758;5.076;2022-11-12T01:39:28;45.10;;;16.83;;
74162;SDS011;62515;52.758;5.076;2022-11-12T01:42:14;36.47;;;14.77;;
74162;SDS011;62515;52.758;5.076;2022-11-12T01:44:59;33.15;;;14.65;;
74162;SDS011;62515;52.758;5.076;2022-11-12T01:47:45;40.15;;;14.90;;
74162;SDS011;62515;52.758;5.076;2022-11-12T01:50:35;38.47;;;15.23;;
74162;SDS011;62515;52.758;5.076;2022-11-12T01:53:24;28.02;;;15.25;;
74162;SDS011;62515;52.758;5.076;2022-11-12T01:56:13;38.70;;;16.83;;
74162;SDS011;62515;52.758;5.076;2022-11-12T01:59:00;31.02;;;14.20;;
74162;SDS011;62515;52.758;5.076;2022-11-12T02:01:48;33.28;;;15.48;;
74162;SDS011;62515;52.758;5.076;2022-11-12T02:04:33;34.25;;;15.07;;
74162;SDS011;62515;52.758;5.076;2022-11-12T02:10:07;36.90;;;15.05;;
74162;SDS011;62515;52.758;5.076;2022-11-12T02:12:55;33.20;;;15.27;;
74162;SDS011;62515;52.758;5.076;2022-11-12T02:16:19;40.63;;;16.33;;
74162;SDS011;62515;52.758;5.076;2022-11-12T02:19:05;34.00;;;15.98;;
74162;SDS011;62515;52.758;5.076;2022-11-12T02:21:53;38.80;;;19.05;;
74162;SDS011;62515;52.758;5.076;2022-11-12T02:24:38;45.28;;;19.65;;
74162;SDS011;62515;52.758;5.076;2022-11-12T02:27:24;34.83;;;16.45;;
74162;SDS011;62515;52.758;5.076;2022-11-12T02:30:10;36.88;;;18.90;;
74162;SDS011;62515;52.758;5.076;2022-11-12T02:32:56;41.47;;;17.98;;
74162;SDS011;62515;52.758;5.076;2022-11-12T02:35:41;42.35;;;17.63;;
74162;SDS011;62515;52.758;5.076;2022-11-12T02:38:29;38.60;;;18.77;;
74162;SDS011;62515;52.758;5.076;2022-11-12T02:41:14;43.85;;;18.58;;
74162;SDS011;62515;52.758;5.076;2022-11-12T02:44:00;39.20;;;17.83;;
74162;SDS011;62515;52.758;5.076;2022-11-12T02:46:46;39.75;;;18.75;;
74162;SDS011;62515;52.758;5.076;2022-11-12T02:49:31;51.35;;;18.65;;
74162;SDS011;62515;52.758;5.076;2022-11-12T02:52:16;50.60;;;18.02;;
74162;SDS011;62515;52.758;5.076;2022-11-12T02:55:04;39.83;;;17.80;;
74162;SDS011;62515;52.758;5.076;2022-11-12T02:57:50;47.03;;;21.27;;
74162;SDS011;62515;52.758;5.076;2022-11-12T03:00:36;40.47;;;17.58;;
74162;SDS011;62515;52.758;5.076;2022-11-12T03:03:21;47.75;;;20.88;;
74162;SDS011;62515;52.758;5.076;2022-11-12T03:06:07;46.97;;;18.45;;
74162;SDS011;62515;52.758;5.076;2022-11-12T03:08:52;50.38;;;18.30;;
74162;SDS011;62515;52.758;5.076;2022-11-12T03:11:39;49.55;;;18.67;;
74162;SDS011;62515;52.758;5.076;2022-11-12T03:14:25;60.97;;;21.13;;
74162;SDS011;62515;52.758;5.076;2022-11-12T03:17:10;54.00;;;20.58;;
74162;SDS011;62515;52.758;5.076;2022-11-12T03:19:55;50.83;;;18.58;;
74162;SDS011;62515;52.758;5.076;2022-11-12T03:22:41;59.10;;;20.52;;
74162;SDS011;62515;52.758;5.076;2022-11-12T03:25:27;70.75;;;21.63;;
74162;SDS011;62515;52.758;5.076;2022-11-12T03:28:14;69.28;;;21.15;;
74162;SDS011;62515;52.758;5.076;2022-11-12T03:31:00;65.72;;;21.80;;
74162;SDS011;62515;52.758;5.076;2022-11-12T03:33:46;68.43;;;22.40;;
74162;SDS011;62515;52.758;5.076;2022-11-12T03:36:32;58.55;;;19.33;;
74162;SDS011;62515;52.758;5.076;2022-11-12T03:39:17;60.67;;;20.48;;
74162;SDS011;62515;52.758;5.076;2022-11-12T03:42:03;76.15;;;22.67;;
74162;SDS011;62515;52.758;5.076;2022-11-12T03:44:50;76.30;;;22.25;;
74162;SDS011;62515;52.758;5.076;2022-11-12T03:47:38;74.38;;;21.40;;
74162;SDS011;62515;52.758;5.076;2022-11-12T03:50:26;88.70;;;22.73;;
74162;SDS011;62515;52.758;5.076;2022-11-12T03:53:13;80.82;;;21.42;;
74162;SDS011;62515;52.758;5.076;2022-11-12T03:55:59;87.00;;;24.33;;
74162;SDS011;62515;52.758;5.076;2022-11-12T03:58:44;83.35;;;22.10;;
74162;SDS011;62515;52.758;5.076;2022-11-12T04:01:31;70.05;;;20.25;;
74162;SDS011;62515;52.758;5.076;2022-11-12T04:04:16;79.85;;;22.58;;
74162;SDS011;62515;52.758;5.076;2022-11-12T04:07:02;77.47;;;24.15;;
74162;SDS011;62515;52.758;5.076;2022-11-12T04:10:16;78.70;;;21.55;;
74162;SDS011;62515;52.758;5.076;2022-11-12T04:13:02;83.10;;;22.38;;
74162;SDS011;62515;52.758;5.076;2022-11-12T04:16:06;83.45;;;23.88;;
74162;SDS011;62515;52.758;5.076;2022-11-12T04:19:13;87.50;;;23.63;;
74162;SDS011;62515;52.758;5.076;2022-11-12T04:22:17;88.97;;;25.35;;
74162;SDS011;62515;52.758;5.076;2022-11-12T04:25:03;84.93;;;20.98;;
74162;SDS011;62515;52.758;5.076;2022-11-12T04:28:07;80.80;;;20.95;;
74162;SDS011;62515;52.758;5.076;2022-11-12T04:30:52;81.50;;;21.73;;
74162;SDS011;62515;52.758;5.076;2022-11-12T04:33:38;71.25;;;20.83;;
74162;SDS011;62515;52.758;5.076;2022-11-12T04:36:25;71.30;;;20.88;;
74162;SDS011;62515;52.758;5.076;2022-11-12T04:39:10;68.78;;;20.55;;
74162;SDS011;62515;52.758;5.076;2022-11-12T04:41:56;81.00;;;21.98;;
74162;SDS011;62515;52.758;5.076;2022-11-12T04:45:00;69.50;;;21.40;;
74162;SDS011;62515;52.758;5.076;2022-11-12T04:47:45;77.05;;;21.42;;
74162;SDS011;62515;52.758;5.076;2022-11-12T04:50:31;71.82;;;22.17;;
74162;SDS011;62515;52.758;5.076;2022-11-12T04:53:18;68.78;;;22.60;;
74162;SDS011;62515;52.758;5.076;2022-11-12T04:56:04;73.93;;;24.42;;
74162;SDS011;62515;52.758;5.076;2022-11-12T04:58:50;77.95;;;25.58;;
74162;SDS011;62515;52.758;5.076;2022-11-12T05:01:35;76.32;;;23.17;;
74162;SDS011;62515;52.758;5.076;2022-11-12T05:04:21;78.97;;;22.20;;
74162;SDS011;62515;52.758;5.076;2022-11-12T05:07:06;87.53;;;24.45;;
74162;SDS011;62515;52.758;5.076;2022-11-12T05:09:53;85.47;;;23.92;;
74162;SDS011;62515;52.758;5.076;2022-11-12T05:12:39;81.78;;;22.08;;
74162;SDS011;62515;52.758;5.076;2022-11-12T05:15:24;71.32;;;21.73;;
74162;SDS011;62515;52.758;5.076;2022-11-12T05:18:10;91.30;;;24.63;;
74162;SDS011;62515;52.758;5.076;2022-11-12T05:20:55;73.68;;;23.95;;
74162;SDS011;62515;52.758;5.076;2022-11-12T05:23:40;91.13;;;22.75;;
74162;SDS011;62515;52.758;5.076;2022-11-12T05:26:27;79.00;;;22.92;;
74162;SDS011;62515;52.758;5.076;2022-11-12T05:29:14;76.32;;;20.80;;
74162;SDS011;62515;52.758;5.076;2022-11-12T05:31:59;72.75;;;22.92;;
74162;SDS011;62515;52.758;5.076;2022-11-12T05:34:45;69.30;;;24.45;;
74162;SDS011;62515;52.758;5.076;2022-11-12T05:37:30;83.63;;;19.27;;
74162;SDS011;62515;52.758;5.076;2022-11-12T05:40:16;72.32;;;20.20;;
74162;SDS011;62515;52.758;5.076;2022-11-12T05:43:03;61.55;;;24.30;;
74162;SDS011;62515;52.758;5.076;2022-11-12T05:45:48;60.35;;;21.13;;
74162;SDS011;62515;52.758;5.076;2022-11-12T05:48:33;66.93;;;19.92;;
74162;SDS011;62515;52.758;5.076;2022-11-12T05:51:19;56.92;;;17.85;;
74162;SDS011;62515;52.758;5.076;2022-11-12T05:54:04;65.25;;;21.30;;
74162;SDS011;62515;52.758;5.076;2022-11-12T05:56:50;61.00;;;19.35;;
74162;SDS011;62515;52.758;5.076;2022-11-12T05:59:38;83.47;;;21.35;;
74162;SDS011;62515;52.758;5.076;2022-11-12T06:02:23;69.65;;;20.02;;
74162;SDS011;62515;52.758;5.076;2022-11-12T06:05:09;69.88;;;19.77;;
74162;SDS011;62515;52.758;5.076;2022-11-12T06:07:54;75.22;;;20.33;;
74162;SDS011;62515;52.758;5.076;2022-11-12T06:10:40;76.35;;;20.58;;
74162;SDS011;62515;52.758;5.076;2022-11-12T06:13:25;97.57;;;19.27;;
74162;SDS011;62515;52.758;5.076;2022-11-12T06:16:12;107.75;;;20.55;;
74162;SDS011;62515;52.758;5.076;2022-11-12T06:18:58;110.20;;;20.08;;
74162;SDS011;62515;52.758;5.076;2022-11-12T06:21:43;84.90;;;21.27;;
74162;SDS011;62515;52.758;5.076;2022-11-12T06:24:28;96.22;;;21.70;;
74162;SDS011;62515;52.758;5.076;2022-11-12T06:27:19;137.38;;;24.83;;
74162;SDS011;62515;52.758;5.076;2022-11-12T06:30:05;145.35;;;26.13;;
74162;SDS011;62515;52.758;5.076;2022-11-12T06:32:53;108.68;;;24.75;;
74162;SDS011;62515;52.758;5.076;2022-11-12T06:35:39;88.90;;;20.80;;
74162;SDS011;62515;52.758;5.076;2022-11-12T06:38:27;95.90;;;22.52;;
74162;SDS011;62515;52.758;5.076;2022-11-12T06:41:14;81.50;;;20.52;;
74162;SDS011;62515;52.758;5.076;2022-11-12T06:43:59;78.78;;;19.40;;
74162;SDS011;62515;52.758;5.076;2022-11-12T06:46:45;77.25;;;19.45;;
74162;SDS011;62515;52.758;5.076;2022-11-12T06:49:32;92.43;;;20.52;;
74162;SDS011;62515;52.758;5.076;2022-11-12T06:52:17;112.65;;;21.75;;
74162;SDS011;62515;52.758;5.076;2022-11-12T06:55:03;92.72;;;23.67;;
74162;SDS011;62515;52.758;5.076;2022-11-12T06:57:50;105.75;;;20.98;;
74162;SDS011;62515;52.758;5.076;2022-11-12T07:00:35;105.97;;;23.15;;
74162;SDS011;62515;52.758;5.076;2022-11-12T07:03:21;118.28;;;23.02;;
74162;SDS011;62515;52.758;5.076;2022-11-12T07:06:09;125.85;;;22.30;;
74162;SDS011;62515;52.758;5.076;2022-11-12T07:08:56;132.88;;;24.65;;
74162;SDS011;62515;52.758;5.076;2022-11-12T07:11:41;106.80;;;22.48;;
74162;SDS011;62515;52.758;5.076;2022-11-12T07:14:27;148.15;;;25.60;;
74162;SDS011;62515;52.758;5.076;2022-11-12T07:17:12;122.22;;;21.45;;
74162;SDS011;62515;52.758;5.076;2022-11-12T07:19:58;94.32;;;22.60;;
74162;SDS011;62515;52.758;5.076;2022-11-12T07:22:49;136.45;;;22.35;;
74162;SDS011;62515;52.758;5.076;2022-11-12T07:25:35;112.72;;;23.15;;
74162;SDS011;62515;52.758;5.076;2022-11-12T07:28:20;115.75;;;22.50;;
74162;SDS011;62515;52.758;5.076;2022-11-12T07:31:06;123.28;;;23.77;;
74162;SDS011;62515;52.758;5.076;2022-11-12T07:33:54;104.20;;;23.33;;
74162;SDS011;62515;52.758;5.076;2022-11-12T07:36:39;128.85;;;23.85;;
74162;SDS011;62515;52.758;5.076;2022-11-12T07:39:26;135.18;;;24.13;;
74162;SDS011;62515;52.758;5.076;2022-11-12T07:42:11;145.48;;;24.42;;
74162;SDS011;62515;52.758;5.076;2022-11-12T07:44:57;109.97;;;22.98;;
74162;SDS011;62515;52.758;5.076;2022-11-12T07:47:42;96.18;;;23.27;;
74162;SDS011;62515;52.758;5.076;2022-11-12T07:50:28;139.88;;;23.60;;
74162;SDS011;62515;52.758;5.076;2022-11-12T07:53:13;118.28;;;24.00;;
74162;SDS011;62515;52.758;5.076;2022-11-12T07:56:00;134.70;;;26.80;;
74162;SDS011;62515;52.758;5.076;2022-11-12T07:58:48;146.23;;;26.83;;
74162;SDS011;62515;52.758;5.076;2022-11-12T08:01:34;102.97;;;25.27;;
74162;SDS011;62515;52.758;5.076;2022-11-12T08:04:21;125.97;;;27.95;;
74162;SDS011;62515;52.758;5.076;2022-11-12T08:07:07;101.07;;;24.85;;
74162;SDS011;62515;52.758;5.076;2022-11-12T08:09:52;109.25;;;24.05;;
74162;SDS011;62515;52.758;5.076;2022-11-12T08:12:39;99.97;;;23.67;;
74162;SDS011;62515;52.758;5.076;2022-11-12T08:15:25;122.60;;;27.13;;
74162;SDS011;62515;52.758;5.076;2022-11-12T08:18:10;108.20;;;25.17;;
74162;SDS011;62515;52.758;5.076;2022-11-12T08:21:00;99.97;;;24.90;;
74162;SDS011;62515;52.758;5.076;2022-11-12T08:23:46;93.15;;;24.48;;
74162;SDS011;62515;52.758;5.076;2022-11-12T08:26:32;92.57;;;23.30;;
74162;SDS011;62515;52.758;5.076;2022-11-12T08:29:19;96.18;;;24.67;;
74162;SDS011;62515;52.758;5.076;2022-11-12T08:32:07;91.35;;;23.88;;
74162;SDS011;62515;52.758;5.076;2022-11-12T08:34:53;97.45;;;24.85;;
74162;SDS011;62515;52.758;5.076;2022-11-12T08:37:38;78.43;;;24.10;;
74162;SDS011;62515;52.758;5.076;2022-11-12T08:40:23;70.25;;;22.08;;
74162;SDS011;62515;52.758;5.076;2022-11-12T08:43:10;74.63;;;22.13;;
74162;SDS011;62515;52.758;5.076;2022-11-12T08:45:57;61.38;;;21.27;;
74162;SDS011;62515;52.758;5.076;2022-11-12T08:48:44;59.78;;;21.58;;
74162;SDS011;62515;52.758;5.076;2022-11-12T08:51:30;52.08;;;19.58;;
74162;SDS011;62515;52.758;5.076;2022-11-12T08:54:15;54.47;;;20.70;;
74162;SDS011;62515;52.758;5.076;2022-11-12T08:57:01;51.55;;;20.90;;
74162;SDS011;62515;52.758;5.076;2022-11-12T08:59:46;49.28;;;19.00;;
74162;SDS011;62515;52.758;5.076;2022-11-12T09:02:33;53.42;;;19.35;;
74162;SDS011;62515;52.758;5.076;2022-11-12T09:05:19;50.42;;;20.88;;
74162;SDS011;62515;52.758;5.076;2022-11-12T09:08:06;44.17;;;19.23;;
74162;SDS011;62515;52.758;5.076;2022-11-12T09:10:53;43.70;;;20.02;;
74162;SDS011;62515;52.758;5.076;2022-11-12T09:13:41;53.90;;;19.90;;
74162;SDS011;62515;52.758;5.076;2022-11-12T09:16:26;47.72;;;24.25;;
74162;SDS011;62515;52.758;5.076;2022-11-12T09:19:13;47.63;;;22.23;;
74162;SDS011;62515;52.758;5.076;2022-11-12T09:21:59;48.13;;;19.27;;
74162;SDS011;62515;52.758;5.076;2022-11-12T09:24:44;52.38;;;20.30;;
74162;SDS011;62515;52.758;5.076;2022-11-12T09:27:30;43.97;;;20.90;;
74162;SDS011;62515;52.758;5.076;2022-11-12T09:30:15;45.85;;;22.40;;
74162;SDS011;62515;52.758;5.076;2022-11-12T09:33:00;46.90;;;20.35;;
74162;SDS011;62515;52.758;5.076;2022-11-12T09:35:47;51.85;;;20.33;;
74162;SDS011;62515;52.758;5.076;2022-11-12T09:41:21;44.40;;;18.75;;
74162;SDS011;62515;52.758;5.076;2022-11-12T09:44:10;49.97;;;21.15;;
74162;SDS011;62515;52.758;5.076;2022-11-12T09:47:00;49.20;;;24.63;;
74162;SDS011;62515;52.758;5.076;2022-11-12T09:49:50;45.58;;;20.20;;
74162;SDS011;62515;52.758;5.076;2022-11-12T09:52:44;44.95;;;19.50;;
74162;SDS011;62515;52.758;5.076;2022-11-12T09:55:32;40.35;;;21.83;;
74162;SDS011;62515;52.758;5.076;2022-11-12T09:58:20;46.17;;;20.70;;
74162;SDS011;62515;52.758;5.076;2022-11-12T10:01:09;48.35;;;21.30;;
74162;SDS011;62515;52.758;5.076;2022-11-12T10:04:02;47.67;;;20.80;;
74162;SDS011;62515;52.758;5.076;2022-11-12T10:07:05;50.58;;;21.70;;
74162;SDS011;62515;52.758;5.076;2022-11-12T10:10:12;56.47;;;23.98;;
74162;SDS011;62515;52.758;5.076;2022-11-12T10:13:03;52.88;;;22.83;;
74162;SDS011;62515;52.758;5.076;2022-11-12T10:16:03;61.20;;;23.40;;
74162;SDS011;62515;52.758;5.076;2022-11-12T10:19:24;49.13;;;22.20;;
74162;SDS011;62515;52.758;5.076;2022-11-12T10:22:25;51.72;;;24.17;;
74162;SDS011;62515;52.758;5.076;2022-11-12T10:25:25;48.50;;;22.77;;
74162;SDS011;62515;52.758;5.076;2022-11-12T10:28:23;45.45;;;20.58;;
74162;SDS011;62515;52.758;5.076;2022-11-12T10:31:12;46.78;;;19.70;;
74162;SDS011;62515;52.758;5.076;2022-11-12T10:34:07;41.28;;;21.45;;
74162;SDS011;62515;52.758;5.076;2022-11-12T10:36:59;49.95;;;22.55;;
74162;SDS011;62515;52.758;5.076;2022-11-12T10:39:48;53.28;;;23.63;;
74162;SDS011;62515;52.758;5.076;2022-11-12T10:42:36;56.03;;;24.50;;
74162;SDS011;62515;52.758;5.076;2022-11-12T10:45:40;47.67;;;21.45;;
74162;SDS011;62515;52.758;5.076;2022-11-12T10:48:27;48.70;;;22.58;;
74162;SDS011;62515;52.758;5.076;2022-11-12T10:51:17;54.95;;;23.33;;
74162;SDS011;62515;52.758;5.076;2022-11-12T10:57:20;55.55;;;24.30;;
74162;SDS011;62515;52.758;5.076;2022-11-12T11:00:16;55.70;;;27.55;;
74162;SDS011;62515;52.758;5.076;2022-11-12T11:03:05;48.70;;;24.38;;
74162;SDS011;62515;52.758;5.076;2022-11-12T11:06:00;43.60;;;24.13;;
74162;SDS011;62515;52.758;5.076;2022-11-12T11:08:47;46.70;;;23.30;;
74162;SDS011;62515;52.758;5.076;2022-11-12T11:11:34;40.65;;;23.90;;
74162;SDS011;62515;52.758;5.076;2022-11-12T11:14:24;39.70;;;20.27;;
74162;SDS011;62515;52.758;5.076;2022-11-12T11:17:15;33.35;;;18.88;;
74162;SDS011;62515;52.758;5.076;2022-11-12T11:20:03;29.90;;;18.83;;
74162;SDS011;62515;52.758;5.076;2022-11-12T11:22:49;34.15;;;19.00;;
74162;SDS011;62515;52.758;5.076;2022-11-12T11:25:40;28.83;;;18.13;;
74162;SDS011;62515;52.758;5.076;2022-11-12T11:28:28;34.25;;;19.90;;
74162;SDS011;62515;52.758;5.076;2022-11-12T11:31:22;31.15;;;18.67;;
74162;SDS011;62515;52.758;5.076;2022-11-12T11:34:25;28.10;;;17.25;;
74162;SDS011;62515;52.758;5.076;2022-11-12T11:37:23;26.23;;;16.42;;
74162;SDS011;62515;52.758;5.076;2022-11-12T11:40:13;26.10;;;16.33;;
74162;SDS011;62515;52.758;5.076;2022-11-12T11:43:18;28.20;;;18.00;;
74162;SDS011;62515;52.758;5.076;2022-11-12T11:46:23;32.90;;;18.60;;
74162;SDS011;62515;52.758;5.076;2022-11-12T11:49:30;30.42;;;22.00;;
74162;SDS011;62515;52.758;5.076;2022-11-12T11:52:31;31.23;;;17.67;;
74162;SDS011;62515;52.758;5.076;2022-11-12T11:55:27;28.67;;;17.75;;
74162;SDS011;62515;52.758;5.076;2022-11-12T11:58:25;31.95;;;20.67;;
74162;SDS011;62515;52.758;5.076;2022-11-12T12:01:49;34.15;;;18.75;;
74162;SDS011;62515;52.758;5.076;2022-11-12T12:04:48;28.95;;;19.27;;
74162;SDS011;62515;52.758;5.076;2022-11-12T12:07:36;32.50;;;18.67;;
74162;SDS011;62515;52.758;5.076;2022-11-12T12:10:35;28.02;;;17.83;;
74162;SDS011;62515;52.758;5.076;2022-11-12T12:17:02;28.45;;;19.38;;
74162;SDS011;62515;52.758;5.076;2022-11-12T12:19:59;58.47;;;33.28;;
74162;SDS011;62515;52.758;5.076;2022-11-12T12:22:50;26.33;;;17.52;;
74162;SDS011;62515;52.758;5.076;2022-11-12T12:25:43;23.83;;;17.35;;
74162;SDS011;62515;52.758;5.076;2022-11-12T12:28:33;29.77;;;18.90;;
74162;SDS011;62515;52.758;5.076;2022-11-12T12:31:26;26.25;;;16.73;;
74162;SDS011;62515;52.758;5.076;2022-11-12T12:34:18;24.35;;;16.08;;
74162;SDS011;62515;52.758;5.076;2022-11-12T12:37:11;25.02;;;16.17;;
74162;SDS011;62515;52.758;5.076;2022-11-12T12:40:07;25.60;;;17.10;;
74162;SDS011;62515;52.758;5.076;2022-11-12T12:43:00;22.25;;;15.77;;
74162;SDS011;62515;52.758;5.076;2022-11-12T12:45:51;25.23;;;19.17;;
74162;SDS011;62515;52.758;5.076;2022-11-12T12:48:38;24.58;;;16.33;;
74162;SDS011;62515;52.758;5.076;2022-11-12T12:51:27;25.92;;;18.33;;
74162;SDS011;62515;52.758;5.076;2022-11-12T12:57:40;20.23;;;14.73;;
74162;SDS011;62515;52.758;5.076;2022-11-12T13:00:27;19.40;;;14.65;;
74162;SDS011;62515;52.758;5.076;2022-11-12T13:06:33;18.08;;;14.18;;
74162;SDS011;62515;52.758;5.076;2022-11-12T13:09:21;18.17;;;14.23;;
74162;SDS011;62515;52.758;5.076;2022-11-12T13:12:11;17.90;;;14.02;;
74162;SDS011;62515;52.758;5.076;2022-11-12T13:15:09;16.10;;;12.35;;
74162;SDS011;62515;52.758;5.076;2022-11-12T13:17:57;19.20;;;14.02;;
74162;SDS011;62515;52.758;5.076;2022-11-12T13:20:42;19.30;;;13.13;;
74162;SDS011;62515;52.758;5.076;2022-11-12T13:23:56;19.63;;;13.35;;
74162;SDS011;62515;52.758;5.076;2022-11-12T13:26:54;16.42;;;12.68;;
74162;SDS011;62515;52.758;5.076;2022-11-12T13:32:29;18.35;;;12.38;;
74162;SDS011;62515;52.758;5.076;2022-11-12T13:35:24;21.33;;;16.98;;
74162;SDS011;62515;52.758;5.076;2022-11-12T13:38:13;20.00;;;12.50;;
74162;SDS011;62515;52.758;5.076;2022-11-12T13:41:04;19.85;;;14.15;;
74162;SDS011;62515;52.758;5.076;2022-11-12T13:43:54;21.52;;;15.35;;
74162;SDS011;62515;52.758;5.076;2022-11-12T13:46:40;24.13;;;16.90;;
74162;SDS011;62515;52.758;5.076;2022-11-12T13:49:28;17.50;;;13.82;;
74162;SDS011;62515;52.758;5.076;2022-11-12T13:52:14;18.08;;;12.00;;
74162;SDS011;62515;52.758;5.076;2022-11-12T13:55:05;23.63;;;14.73;;
74162;SDS011;62515;52.758;5.076;2022-11-12T13:57:52;22.25;;;15.10;;
74162;SDS011;62515;52.758;5.076;2022-11-12T14:00:38;20.95;;;15.38;;
74162;SDS011;62515;52.758;5.076;2022-11-12T14:03:24;20.08;;;13.05;;
74162;SDS011;62515;52.758;5.076;2022-11-12T14:06:14;18.52;;;13.90;;
74162;SDS011;62515;52.758;5.076;2022-11-12T14:09:06;21.25;;;15.30;;
74162;SDS011;62515;52.758;5.076;2022-11-12T14:12:22;24.10;;;16.38;;
74162;SDS011;62515;52.758;5.076;2022-11-12T14:15:31;22.67;;;14.88;;
74162;SDS011;62515;52.758;5.076;2022-11-12T14:18:32;27.05;;;19.05;;
74162;SDS011;62515;52.758;5.076;2022-11-12T14:21:28;23.70;;;15.13;;
74162;SDS011;62515;52.758;5.076;2022-11-12T14:24:13;24.75;;;18.15;;
74162;SDS011;62515;52.758;5.076;2022-11-12T14:26:59;19.75;;;14.43;;
74162;SDS011;62515;52.758;5.076;2022-11-12T14:29:46;22.73;;;15.65;;
74162;SDS011;62515;52.758;5.076;2022-11-12T14:35:24;20.40;;;14.45;;
74162;SDS011;62515;52.758;5.076;2022-11-12T14:38:16;18.52;;;13.13;;
74162;SDS011;62515;52.758;5.076;2022-11-12T14:41:06;16.75;;;12.65;;
74162;SDS011;62515;52.758;5.076;2022-11-12T14:43:54;48.65;;;44.55;;
74162;SDS011;62515;52.758;5.076;2022-11-12T14:46:58;19.88;;;13.25;;
74162;SDS011;62515;52.758;5.076;2022-11-12T14:49:44;18.23;;;14.18;;
74162;SDS011;62515;52.758;5.076;2022-11-12T14:52:34;18.70;;;14.02;;
74162;SDS011;62515;52.758;5.076;2022-11-12T14:55:25;21.30;;;14.57;;
74162;SDS011;62515;52.758;5.076;2022-11-12T14:58:14;30.60;;;27.90;;
74162;SDS011;62515;52.758;5.076;2022-11-12T15:01:16;145.60;;;134.85;;
74162;SDS011;62515;52.758;5.076;2022-11-12T15:04:24;42.58;;;38.65;;
74162;SDS011;62515;52.758;5.076;2022-11-12T15:07:21;148.35;;;138.07;;
74162;SDS011;62515;52.758;5.076;2022-11-12T15:10:27;46.67;;;42.40;;
74162;SDS011;62515;52.758;5.076;2022-11-12T15:13:15;407.63;;;377.40;;
74162;SDS011;62515;52.758;5.076;2022-11-12T15:16:03;387.50;;;360.92;;
74162;SDS011;62515;52.758;5.076;2022-11-12T15:19:02;249.80;;;232.77;;
74162;SDS011;62515;52.758;5.076;2022-11-12T15:22:01;348.77;;;324.10;;
74162;SDS011;62515;52.758;5.076;2022-11-12T15:24:48;25.85;;;18.45;;
74162;SDS011;62515;52.758;5.076;2022-11-12T15:27:34;24.02;;;18.83;;
74162;SDS011;62515;52.758;5.076;2022-11-12T15:30:23;24.15;;;17.45;;
74162;SDS011;62515;52.758;5.076;2022-11-12T15:33:15;30.85;;;25.02;;
74162;SDS011;62515;52.758;5.076;2022-11-12T15:36:03;25.55;;;18.15;;
74162;SDS011;62515;52.758;5.076;2022-11-12T15:38:51;23.40;;;17.60;;
74162;SDS011;62515;52.758;5.076;2022-11-12T15:41:38;25.13;;;18.55;;
74162;SDS011;62515;52.758;5.076;2022-11-12T15:44:24;23.25;;;17.83;;
74162;SDS011;62515;52.758;5.076;2022-11-12T15:47:12;24.17;;;16.77;;
74162;SDS011;62515;52.758;5.076;2022-11-12T15:50:10;29.35;;;17.75;;
74162;SDS011;62515;52.758;5.076;2022-11-12T15:53:00;25.45;;;17.20;;
74162;SDS011;62515;52.758;5.076;2022-11-12T15:55:47;26.58;;;19.52;;
74162;SDS011;62515;52.758;5.076;2022-11-12T15:58:36;22.75;;;16.67;;
74162;SDS011;62515;52.758;5.076;2022-11-12T16:01:22;27.13;;;17.20;;
74162;SDS011;62515;52.758;5.076;2022-11-12T16:04:07;24.27;;;16.98;;
74162;SDS011;62515;52.758;5.076;2022-11-12T16:06:54;24.85;;;15.38;;
74162;SDS011;62515;52.758;5.076;2022-11-12T16:09:39;25.42;;;16.75;;
74162;SDS011;62515;52.758;5.076;2022-11-12T16:12:26;25.40;;;18.33;;
74162;SDS011;62515;52.758;5.076;2022-11-12T16:15:12;26.70;;;18.75;;
74162;SDS011;62515;52.758;5.076;2022-11-12T16:17:58;29.00;;;18.23;;
74162;SDS011;62515;52.758;5.076;2022-11-12T16:20:46;24.60;;;16.42;;
74162;SDS011;62515;52.758;5.076;2022-11-12T16:23:33;27.67;;;16.80;;
74162;SDS011;62515;52.758;5.076;2022-11-12T16:26:20;28.27;;;16.73;;
74162;SDS011;62515;52.758;5.076;2022-11-12T16:29:11;25.40;;;15.80;;
74162;SDS011;62515;52.758;5.076;2022-11-12T16:31:57;28.33;;;16.13;;
74162;SDS011;62515;52.758;5.076;2022-11-12T16:34:43;23.80;;;16.10;;
74162;SDS011;62515;52.758;5.076;2022-11-12T16:37:28;29.23;;;15.73;;
74162;SDS011;62515;52.758;5.076;2022-11-12T16:40:15;28.38;;;20.50;;
74162;SDS011;62515;52.758;5.076;2022-11-12T16:43:01;26.60;;;19.30;;
74162;SDS011;62515;52.758;5.076;2022-11-12T16:45:48;27.63;;;18.00;;
74162;SDS011;62515;52.758;5.076;2022-11-12T16:48:34;30.45;;;18.13;;
74162;SDS011;62515;52.758;5.076;2022-11-12T16:51:21;31.85;;;22.58;;
74162;SDS011;62515;52.758;5.076;2022-11-12T16:54:07;29.90;;;18.08;;